Time;durP1;ratioP1;P1;durP2;ratioP2;P2;SDS_P1;SDS_P2;PMS_P1;PMS_P2;Temp;Humidity;BMP_temperature;BMP_pressure;BME280_temperature;BME280_humidity;BME280_pressure;Samples;Min_cycle;Max_cycle;Signal;HPM_P1;HPM_P2
2023/05/31 00:01:53;;;;;;;6.15;3.50;;;10.70;99.90;;;;;;5093517;28;20044;-60
2023/05/31 00:04:19;;;;;;;8.95;3.38;;;10.70;99.90;;;;;;5092707;28;20422;-60
2023/05/31 00:06:46;;;;;;;6.53;3.70;;;10.70;99.90;;;;;;5093564;28;20055;-60
2023/05/31 00:09:12;;;;;;;5.35;3.30;;;10.70;99.90;;;;;;5093519;28;20044;-60
2023/05/31 00:11:38;;;;;;;5.78;3.80;;;10.60;99.90;;;;;;5092845;28;20372;-61
2023/05/31 00:14:04;;;;;;;9.57;3.88;;;10.60;99.90;;;;;;5092995;28;20059;-60
2023/05/31 00:16:31;;;;;;;8.10;4.05;;;10.60;99.90;;;;;;5093386;28;20119;-61
2023/05/31 00:18:57;;;;;;;7.93;3.60;;;10.60;99.90;;;;;;5093552;28;20102;-60
2023/05/31 00:21:24;;;;;;;6.90;3.70;;;10.60;99.90;;;;;;5092584;28;20384;-61
2023/05/31 00:23:50;;;;;;;6.47;3.72;;;10.70;99.90;;;;;;5092784;28;20106;-60
2023/05/31 00:26:17;;;;;;;7.43;3.85;;;10.60;99.90;;;;;;5093096;28;20044;-61
2023/05/31 00:28:43;;;;;;;7.93;3.95;;;10.60;99.90;;;;;;5091878;28;20048;-60
2023/05/31 00:31:09;;;;;;;7.75;3.97;;;10.50;99.90;;;;;;5093079;28;20054;-60
2023/05/31 00:33:36;;;;;;;9.55;4.05;;;10.50;99.90;;;;;;5092211;28;20113;-61
2023/05/31 00:36:03;;;;;;;6.72;3.88;;;10.50;99.90;;;;;;5092767;28;20068;-60
2023/05/31 00:38:29;;;;;;;7.30;4.30;;;10.40;99.90;;;;;;5093101;28;20048;-61
2023/05/31 00:40:55;;;;;;;8.73;3.70;;;10.40;99.90;;;;;;5092568;28;20358;-60
2023/05/31 00:43:21;;;;;;;7.45;3.95;;;10.40;99.90;;;;;;5092136;28;20063;-60
2023/05/31 00:45:48;;;;;;;6.85;3.70;;;10.40;99.90;;;;;;5092775;28;20052;-61
2023/05/31 00:48:14;;;;;;;7.75;3.60;;;10.40;99.90;;;;;;5092606;28;20048;-61
2023/05/31 00:50:41;;;;;;;6.75;3.90;;;10.30;99.90;;;;;;5091262;28;20329;-60
2023/05/31 00:53:08;;;;;;;7.22;3.80;;;10.30;99.90;;;;;;5090951;28;20043;-60
2023/05/31 00:55:35;;;;;;;6.13;3.30;;;10.30;99.90;;;;;;5092617;28;20052;-61
2023/05/31 00:58:02;;;;;;;6.60;3.80;;;10.30;99.90;;;;;;5092651;28;20051;-61
2023/05/31 01:00:29;;;;;;;7.20;3.55;;;10.30;99.90;;;;;;5092532;28;20047;-61
2023/05/31 01:02:55;;;;;;;6.20;3.72;;;10.30;99.90;;;;;;5092017;28;20101;-61
2023/05/31 01:05:22;;;;;;;7.50;3.45;;;10.30;99.90;;;;;;5092268;28;20047;-62
2023/05/31 01:07:48;;;;;;;5.82;3.70;;;10.30;99.90;;;;;;5091884;28;20048;-60
2023/05/31 01:10:15;;;;;;;5.80;3.72;;;10.20;99.90;;;;;;5092368;28;20428;-62
2023/05/31 01:13:03;;;;;;;7.82;3.78;;;10.20;99.90;;;;;;5091353;28;20443;-62
2023/05/31 01:15:44;;;;;;;6.47;3.55;;;10.10;99.90;;;;;;5092189;28;20461;-61
2023/05/31 01:18:25;;;;;;;7.82;4.40;;;10.10;99.90;;;;;;5092245;28;20044;-62
2023/05/31 01:20:57;;;;;;;9.50;4.05;;;10.10;99.90;;;;;;5091991;28;20043;-61
2023/05/31 01:23:23;;;;;;;;;;;10.10;99.90;;;;;;5091971;28;20562;-62
2023/05/31 01:26:30;;;;;;;7.55;3.92;;;10.10;99.90;;;;;;5092115;28;19981;-61
2023/05/31 01:29:01;;;;;;;9.82;4.30;;;10.10;99.90;;;;;;5091478;28;20434;-62
2023/05/31 01:31:30;;;;;;;7.95;3.95;;;10.00;99.90;;;;;;5091709;28;20410;-61
2023/05/31 01:33:56;;;;;;;7.70;4.18;;;10.00;99.90;;;;;;5091774;28;20056;-61
2023/05/31 01:36:23;;;;;;;7.25;3.72;;;10.00;99.90;;;;;;5091862;28;20059;-61
2023/05/31 01:38:49;;;;;;;8.35;4.28;;;9.90;99.90;;;;;;5091949;28;20044;-61
2023/05/31 01:41:17;;;;;;;8.48;4.30;;;9.90;99.90;;;;;;5091873;28;20055;-60
2023/05/31 01:43:45;;;;;;;9.65;4.22;;;9.90;99.90;;;;;;5090913;28;20070;-61
2023/05/31 01:46:16;;;;;;;7.00;4.60;;;9.90;99.90;;;;;;5091994;28;20048;-60
2023/05/31 01:48:42;;;;;;;6.80;3.97;;;9.90;99.90;;;;;;5091915;28;20085;-62
2023/05/31 01:51:11;;;;;;;10.38;4.43;;;9.80;99.90;;;;;;5091649;28;20056;-61
2023/05/31 01:53:38;;;;;;;8.48;4.70;;;9.80;99.90;;;;;;5091185;28;20056;-62
2023/05/31 01:56:05;;;;;;;7.72;4.32;;;9.90;99.90;;;;;;5091898;28;20059;-62
2023/05/31 01:58:32;;;;;;;8.30;4.50;;;9.80;99.90;;;;;;5091922;28;20060;-62
2023/05/31 02:00:59;;;;;;;6.93;4.10;;;9.80;99.90;;;;;;5091896;28;20471;-62
2023/05/31 02:03:25;;;;;;;7.47;4.40;;;9.80;99.90;;;;;;5091138;28;20052;-62
2023/05/31 02:05:58;;;;;;;9.00;4.70;;;9.80;99.90;;;;;;5091658;28;20479;-61
2023/05/31 02:08:26;;;;;;;7.95;4.25;;;9.80;99.90;;;;;;5091761;28;20040;-61
2023/05/31 02:10:53;;;;;;;6.45;4.35;;;9.70;99.90;;;;;;5091714;28;20048;-61
2023/05/31 02:13:20;;;;;;;7.45;4.05;;;9.70;99.90;;;;;;5090099;28;20048;-62
2023/05/31 02:15:46;;;;;;;9.32;4.57;;;9.60;99.90;;;;;;5091888;28;20056;-60
2023/05/31 02:18:16;;;;;;;8.15;4.68;;;9.60;99.90;;;;;;5091665;28;20044;-60
2023/05/31 02:20:43;;;;;;;7.97;4.43;;;9.70;99.90;;;;;;5094733;28;20056;-62
2023/05/31 02:23:09;;;;;;;9.48;4.60;;;9.60;99.90;;;;;;5094529;28;20426;-61
2023/05/31 02:25:36;;;;;;;7.72;4.43;;;9.60;99.90;;;;;;5095437;28;20087;-63
2023/05/31 02:28:02;;;;;;;7.70;4.53;;;9.50;99.90;;;;;;5095475;28;20059;-61
2023/05/31 02:30:31;;;;;;;9.93;4.88;;;9.50;99.90;;;;;;5094949;28;20487;-62
2023/05/31 02:32:59;;;;;;;7.93;4.53;;;9.50;99.90;;;;;;5093896;28;20384;-62
2023/05/31 02:35:26;;;;;;;7.90;5.03;;;9.50;99.90;;;;;;5095607;28;20190;-62
2023/05/31 02:37:52;;;;;;;10.05;4.50;;;9.50;99.90;;;;;;5094914;28;20495;-61
2023/05/31 02:40:18;;;;;;;8.07;4.57;;;9.50;99.90;;;;;;5095162;28;20052;-60
2023/05/31 02:42:44;;;;;;;8.85;4.68;;;9.40;99.90;;;;;;5094513;28;20105;-60
2023/05/31 02:45:11;;;;;;;7.60;4.70;;;9.40;99.90;;;;;;5094984;28;20388;-61
2023/05/31 02:47:38;;;;;;;9.20;4.25;;;9.40;99.90;;;;;;5095105;28;20098;-62
2023/05/31 02:50:09;;;;;;;8.35;4.90;;;9.40;99.90;;;;;;5094722;28;20109;-60
2023/05/31 02:52:36;;;;;;;9.98;4.78;;;9.40;99.90;;;;;;5094269;28;20055;-62
2023/05/31 02:55:03;;;;;;;12.18;5.60;;;9.40;99.90;;;;;;5094959;28;20043;-62
2023/05/31 02:57:30;;;;;;;9.57;5.63;;;9.40;99.90;;;;;;5094066;28;20061;-62
2023/05/31 02:59:58;;;;;;;9.60;5.38;;;9.40;99.90;;;;;;5095013;28;20098;-61
2023/05/31 03:02:24;;;;;;;8.23;5.53;;;9.40;99.90;;;;;;5093802;28;20384;-61
2023/05/31 03:04:51;;;;;;;8.88;5.20;;;9.30;99.90;;;;;;5094182;28;20127;-62
2023/05/31 03:07:17;;;;;;;9.02;4.85;;;9.30;99.90;;;;;;5094640;28;20121;-61
2023/05/31 03:09:44;;;;;;;10.00;5.00;;;9.40;99.90;;;;;;5094529;28;20048;-60
2023/05/31 03:12:10;;;;;;;7.93;5.20;;;9.30;99.90;;;;;;5093001;28;20044;-61
2023/05/31 03:14:36;;;;;;;9.48;5.13;;;9.30;99.90;;;;;;5094500;28;20415;-62
2023/05/31 03:17:03;;;;;;;9.45;5.32;;;9.30;99.90;;;;;;5094474;28;20510;-60
2023/05/31 03:19:29;;;;;;;10.82;5.47;;;9.30;99.90;;;;;;5094535;28;20063;-61
2023/05/31 03:21:55;;;;;;;8.82;5.10;;;9.30;99.90;;;;;;5094101;28;20055;-62
2023/05/31 03:24:22;;;;;;;9.98;5.65;;;9.30;99.90;;;;;;5093976;28;20453;-62
2023/05/31 03:26:48;;;;;;;11.25;5.72;;;9.30;99.90;;;;;;5094281;28;20070;-62
2023/05/31 03:29:14;;;;;;;10.13;5.47;;;9.30;99.90;;;;;;5093971;28;20082;-61
2023/05/31 03:31:41;;;;;;;10.77;5.35;;;9.20;99.90;;;;;;5093323;28;20062;-62
2023/05/31 03:34:08;;;;;;;8.60;5.70;;;9.20;99.90;;;;;;5092582;28;20063;-62
2023/05/31 03:36:36;;;;;;;8.85;5.22;;;9.30;99.90;;;;;;5093733;28;20491;-61
2023/05/31 03:39:03;;;;;;;11.50;5.95;;;9.30;99.90;;;;;;5093836;28;20056;-62
2023/05/31 03:41:29;;;;;;;11.23;5.80;;;9.30;99.90;;;;;;5093796;28;20066;-63
2023/05/31 03:43:56;;;;;;;12.15;5.40;;;9.30;99.90;;;;;;5093621;28;20074;-61
2023/05/31 03:46:22;;;;;;;8.30;5.07;;;9.30;99.90;;;;;;5094508;28;20044;-62
2023/05/31 03:48:49;;;;;;;8.20;5.30;;;9.30;99.90;;;;;;5094293;28;20066;-62
2023/05/31 03:51:16;;;;;;;7.90;4.97;;;9.30;99.90;;;;;;5093967;28;20072;-62
2023/05/31 03:53:42;;;;;;;8.70;5.63;;;9.30;99.90;;;;;;5093222;28;20048;-61
2023/05/31 03:56:08;;;;;;;10.63;6.15;;;9.30;99.90;;;;;;5093587;28;20052;-61
2023/05/31 03:58:35;;;;;;;9.25;5.35;;;9.40;99.90;;;;;;5093760;28;20109;-61
2023/05/31 04:01:02;;;;;;;10.00;5.90;;;9.40;99.90;;;;;;5093530;28;20058;-61
2023/05/31 04:03:28;;;;;;;9.48;5.30;;;9.30;99.90;;;;;;5092966;28;20051;-61
2023/05/31 04:05:55;;;;;;;9.15;5.20;;;9.40;99.90;;;;;;5093387;28;20105;-60
2023/05/31 04:08:21;;;;;;;11.23;5.32;;;9.40;99.90;;;;;;5093428;28;20554;-62
2023/05/31 04:10:47;;;;;;;9.82;5.45;;;9.40;99.90;;;;;;5093479;28;20052;-62
2023/05/31 04:13:13;;;;;;;9.80;5.65;;;9.60;99.90;;;;;;5092325;28;20514;-63
2023/05/31 04:15:40;;;;;;;9.95;5.50;;;9.60;99.90;;;;;;5093149;28;20105;-61
2023/05/31 04:18:06;;;;;;;11.40;5.85;;;9.60;99.90;;;;;;5093722;28;20048;-62
2023/05/31 04:20:32;;;;;;;10.68;5.70;;;9.60;99.90;;;;;;5093095;28;20062;-62
2023/05/31 04:22:58;;;;;;;10.00;5.85;;;9.70;99.90;;;;;;5092648;28;20044;-61
2023/05/31 04:25:25;;;;;;;11.98;5.57;;;9.60;99.90;;;;;;5093391;28;20079;-61
2023/05/31 04:27:51;;;;;;;13.05;5.95;;;9.70;99.90;;;;;;5093178;28;20052;-61
2023/05/31 04:30:17;;;;;;;11.07;5.63;;;9.60;99.90;;;;;;5092718;28;20060;-62
2023/05/31 04:32:44;;;;;;;13.23;6.35;;;9.80;99.90;;;;;;5092716;28;20066;-61
2023/05/31 04:35:10;;;;;;;12.15;6.05;;;9.80;99.90;;;;;;5093087;28;20439;-61
2023/05/31 04:37:39;;;;;;;11.75;6.03;;;9.80;99.90;;;;;;5092691;28;20059;-61
2023/05/31 04:40:08;;;;;;;12.10;6.57;;;9.80;99.90;;;;;;5092575;28;20483;-63
2023/05/31 04:42:36;;;;;;;15.23;6.03;;;10.00;99.90;;;;;;5091345;28;20056;-62
2023/05/31 04:45:04;;;;;;;12.40;6.25;;;9.90;99.90;;;;;;5092740;28;20048;-61
2023/05/31 04:47:31;;;;;;;10.52;5.65;;;10.00;99.90;;;;;;5092905;28;20044;-62
2023/05/31 04:49:57;;;;;;;12.70;5.63;;;10.00;99.90;;;;;;5092692;28;20067;-62
2023/05/31 04:52:28;;;;;;;13.82;5.90;;;10.20;99.90;;;;;;5092065;28;20109;-61
2023/05/31 04:54:56;;;;;;;11.27;6.20;;;10.50;99.90;;;;;;5092870;28;20051;-61
2023/05/31 04:57:22;;;;;;;11.98;6.82;;;11.30;99.90;;;;;;5092358;28;20517;-61
2023/05/31 04:59:49;;;;;;;11.00;6.78;;;12.30;99.90;;;;;;5092417;28;20078;-61
2023/05/31 05:02:17;;;;;;;10.82;6.03;;;13.40;99.90;;;;;;5091918;28;20090;-61
2023/05/31 05:04:43;;;;;;;10.82;6.13;;;14.30;99.90;;;;;;5092652;28;20048;-61
2023/05/31 05:07:10;;;;;;;9.63;6.15;;;14.90;99.90;;;;;;5091681;28;20047;-61
2023/05/31 05:09:36;;;;;;;10.93;6.65;;;15.40;99.90;;;;;;5088532;28;20402;-61
2023/05/31 05:12:03;;;;;;;16.98;6.13;;;15.60;99.90;;;;;;5080381;28;20063;-61
2023/05/31 05:14:30;;;;;;;10.60;6.07;;;16.00;99.90;;;;;;5083095;28;20040;-61
2023/05/31 05:16:56;;;;;;;9.63;6.05;;;16.20;99.90;;;;;;5085560;28;20056;-60
2023/05/31 05:19:23;;;;;;;10.18;6.18;;;16.40;99.90;;;;;;5071940;28;20409;-61
2023/05/31 05:21:49;;;;;;;11.75;6.50;;;16.60;99.90;;;;;;5084940;28;20060;-61
2023/05/31 05:24:16;;;;;;;12.63;6.78;;;16.80;99.90;;;;;;5092142;28;20518;-63
2023/05/31 05:26:43;;;;;;;10.35;5.97;;;17.10;99.90;;;;;;5091674;28;20044;-63
2023/05/31 05:29:09;;;;;;;10.20;5.80;;;17.20;99.90;;;;;;5091811;28;20063;-62
2023/05/31 05:31:36;;;;;;;13.23;6.32;;;17.50;99.90;;;;;;5091667;28;20066;-63
2023/05/31 05:34:02;;;;;;;10.45;6.00;;;17.80;99.90;;;;;;5091949;28;20039;-62
2023/05/31 05:36:28;;;;;;;8.35;5.50;;;18.30;99.90;;;;;;5091793;28;20380;-62
2023/05/31 05:38:58;;;;;;;11.90;6.22;;;18.70;99.90;;;;;;5091806;28;20052;-60
2023/05/31 05:41:25;;;;;;;11.93;6.55;;;18.80;99.90;;;;;;5092091;28;20052;-61
2023/05/31 05:43:51;;;;;;;10.63;6.43;;;18.80;99.90;;;;;;5091244;28;20114;-61
2023/05/31 05:46:18;;;;;;;11.30;6.25;;;18.90;99.90;;;;;;5091828;28;20051;-61
2023/05/31 05:48:44;;;;;;;10.10;6.38;;;19.20;99.90;;;;;;5091810;28;20259;-62
2023/05/31 05:51:10;;;;;;;11.48;6.43;;;19.50;99.90;;;;;;5091760;28;20052;-61
2023/05/31 05:53:37;;;;;;;11.23;7.45;;;19.70;99.90;;;;;;5092759;28;20052;-62
2023/05/31 05:56:03;;;;;;;16.38;6.72;;;19.50;99.90;;;;;;5096050;28;20051;-61
2023/05/31 05:58:30;;;;;;;10.80;6.65;;;19.30;99.90;;;;;;5095422;28;20063;-61
2023/05/31 06:00:56;;;;;;;12.15;7.18;;;19.60;99.90;;;;;;5096064;28;20052;-61
2023/05/31 06:03:23;;;;;;;10.10;6.07;;;19.60;99.90;;;;;;5095650;28;20047;-60
2023/05/31 06:05:49;;;;;;;10.25;5.72;;;19.60;99.90;;;;;;5095697;28;20048;-61
2023/05/31 06:08:16;;;;;;;10.35;6.20;;;19.80;99.90;;;;;;5094495;28;20056;-62
2023/05/31 06:10:42;;;;;;;13.45;6.50;;;20.10;99.90;;;;;;5095676;28;20105;-62
2023/05/31 06:13:08;;;;;;;7.93;5.63;;;20.20;99.90;;;;;;5095515;28;20150;-62
2023/05/31 06:15:35;;;;;;;11.20;6.43;;;20.50;99.90;;;;;;5095602;28;20062;-61
2023/05/31 06:18:01;;;;;;;11.20;6.03;;;20.70;99.90;;;;;;5095517;28;20048;-61
2023/05/31 06:20:27;;;;;;;9.70;5.95;;;20.40;99.90;;;;;;5095454;28;20422;-63
2023/05/31 06:22:54;;;;;;;8.10;5.03;;;20.30;99.90;;;;;;5095099;28;20483;-61
2023/05/31 06:25:22;;;;;;;8.95;5.97;;;20.30;99.90;;;;;;5095469;28;20716;-62
2023/05/31 06:27:48;;;;;;;9.65;5.32;;;20.30;99.90;;;;;;5095076;28;20063;-61
2023/05/31 06:30:15;;;;;;;9.93;5.35;;;20.60;99.90;;;;;;5095045;28;20052;-62
2023/05/31 06:32:41;;;;;;;11.68;6.10;;;20.80;99.90;;;;;;5095181;28;20051;-61
2023/05/31 06:35:08;;;;;;;9.73;5.72;;;20.90;99.90;;;;;;5093249;28;20051;-61
2023/05/31 06:37:34;;;;;;;8.05;5.63;;;20.90;99.90;;;;;;5095104;28;20048;-62
2023/05/31 06:40:00;;;;;;;8.77;5.18;;;21.00;99.90;;;;;;5095009;28;20052;-62
2023/05/31 06:42:26;;;;;;;14.13;5.93;;;21.40;99.90;;;;;;5095514;28;20055;-61
2023/05/31 06:44:55;;;;;;;9.52;5.10;;;21.70;99.90;;;;;;5095509;28;20048;-62
2023/05/31 06:47:21;;;;;;;8.60;4.97;;;21.40;99.90;;;;;;5095211;28;20153;-63
2023/05/31 06:49:47;;;;;;;8.05;5.03;;;21.50;99.90;;;;;;5095549;28;20070;-61
2023/05/31 06:52:14;;;;;;;10.38;5.50;;;21.90;99.90;;;;;;5095441;28;20101;-61
2023/05/31 06:54:42;;;;;;;8.02;4.72;;;21.60;99.90;;;;;;5095453;28;20056;-62
2023/05/31 06:57:09;;;;;;;7.43;4.80;;;20.90;99.90;;;;;;5095428;28;20062;-60
2023/05/31 06:59:35;;;;;;;10.48;5.35;;;20.20;99.90;;;;;;5094854;28;20048;-61
2023/05/31 07:02:02;;;;;;;10.85;5.35;;;19.90;99.90;;;;;;5095181;28;20055;-62
2023/05/31 07:04:28;;;;;;;9.45;4.78;;;19.60;99.90;;;;;;5094768;28;20048;-62
2023/05/31 07:06:55;;;;;;;8.98;5.03;;;19.40;99.90;;;;;;5095221;28;20040;-61
2023/05/31 07:09:21;;;;;;;11.32;5.20;;;19.10;99.90;;;;;;5094955;28;20054;-62
2023/05/31 07:11:48;;;;;;;12.82;5.18;;;19.10;99.90;;;;;;5094841;28;20459;-61
2023/05/31 07:14:14;;;;;;;11.57;5.20;;;19.00;99.90;;;;;;5095227;28;20055;-62
2023/05/31 07:16:40;;;;;;;8.70;5.03;;;18.90;99.90;;;;;;5095003;28;20052;-61
2023/05/31 07:19:07;;;;;;;8.70;4.70;;;18.70;99.90;;;;;;5094693;28;20436;-61
2023/05/31 07:21:33;;;;;;;8.02;5.28;;;18.50;99.90;;;;;;5094767;28;20044;-61
2023/05/31 07:24:00;;;;;;;10.20;5.03;;;18.60;99.90;;;;;;5094809;28;20056;-62
2023/05/31 07:26:26;;;;;;;7.88;4.85;;;18.70;99.90;;;;;;5094985;28;20113;-61
2023/05/31 07:28:52;;;;;;;10.77;5.97;;;18.90;99.90;;;;;;5094151;28;20056;-61
2023/05/31 07:31:20;;;;;;;12.10;5.43;;;19.00;99.90;;;;;;5095065;28;20055;-61
2023/05/31 07:33:46;;;;;;;8.65;5.15;;;19.00;99.90;;;;;;5094456;28;20113;-62
2023/05/31 07:36:13;;;;;;;8.98;5.15;;;19.00;99.90;;;;;;5094592;28;20063;-62
2023/05/31 07:38:39;;;;;;;9.85;5.40;;;18.90;99.90;;;;;;5094319;28;20043;-62
2023/05/31 07:41:05;;;;;;;10.35;5.60;;;19.00;99.90;;;;;;5094606;28;20044;-61
2023/05/31 07:43:32;;;;;;;7.60;5.15;;;19.20;99.90;;;;;;5094300;28;20060;-63
2023/05/31 07:45:59;;;;;;;10.57;5.32;;;19.20;99.90;;;;;;5094546;28;20059;-61
2023/05/31 07:48:25;;;;;;;8.00;5.15;;;19.00;99.90;;;;;;5093787;28;20052;-62
2023/05/31 07:50:51;;;;;;;9.05;5.40;;;19.10;99.90;;;;;;5094270;28;20048;-62
2023/05/31 07:53:18;;;;;;;9.50;5.55;;;18.90;99.90;;;;;;5094051;28;20052;-61
2023/05/31 07:55:44;;;;;;;9.77;4.82;;;19.00;99.90;;;;;;5094307;28;20105;-62
2023/05/31 07:58:11;;;;;;;8.05;4.72;;;18.90;99.90;;;;;;5093555;28;20052;-61
2023/05/31 08:00:40;;;;;;;10.00;5.50;;;19.10;99.90;;;;;;5094181;28;20040;-62
2023/05/31 08:03:06;;;;;;;8.02;4.85;;;19.30;99.90;;;;;;5093851;28;20101;-61
2023/05/31 08:05:33;;;;;;;7.65;4.80;;;19.40;99.90;;;;;;5094064;28;20605;-62
2023/05/31 08:08:00;;;;;;;9.57;4.93;;;19.60;99.90;;;;;;5093784;28;20055;-62
2023/05/31 08:10:26;;;;;;;9.98;5.22;;;19.70;99.90;;;;;;5094235;28;20055;-62
2023/05/31 08:12:52;;;;;;;10.27;4.80;;;19.90;99.90;;;;;;5093500;28;20040;-62
2023/05/31 08:15:18;;;;;;;8.30;5.07;;;19.90;99.90;;;;;;5093921;28;20051;-62
2023/05/31 08:17:46;;;;;;;9.85;5.35;;;19.90;99.90;;;;;;5093470;28;20706;-61
2023/05/31 08:20:14;;;;;;;8.90;4.80;;;19.90;99.90;;;;;;5093730;28;20116;-61
2023/05/31 08:22:44;;;;;;;7.32;4.95;;;19.80;99.90;;;;;;5093686;28;20054;-62
2023/05/31 08:25:16;;;;;;;8.93;5.13;;;19.90;99.90;;;;;;5093649;28;20044;-62
2023/05/31 08:27:43;;;;;;;8.88;5.20;;;19.90;99.90;;;;;;5093398;28;20451;-63
2023/05/31 08:30:11;;;;;;;10.60;5.22;;;19.90;99.90;;;;;;5093362;28;20067;-61
2023/05/31 08:32:38;;;;;;;9.27;5.32;;;20.00;99.90;;;;;;5091714;28;20051;-61
2023/05/31 08:35:08;;;;;;;12.10;5.22;;;20.00;99.90;;;;;;5074081;28;20060;-61
2023/05/31 08:37:38;;;;;;;8.73;4.60;;;20.00;99.90;;;;;;5092875;28;20040;-61
2023/05/31 08:40:07;;;;;;;9.25;5.15;;;20.20;99.90;;;;;;5093376;28;20047;-62
2023/05/31 08:42:47;;;;;;;8.77;4.90;;;20.30;99.90;;;;;;5092887;28;20385;-63
2023/05/31 08:45:13;;;;;;;7.13;4.57;;;20.30;99.90;;;;;;5092890;28;20435;-62
2023/05/31 08:47:43;;;;;;;9.35;5.20;;;20.20;99.90;;;;;;5093172;28;20471;-62
2023/05/31 08:50:11;;;;;;;8.13;4.82;;;20.10;99.90;;;;;;5093324;28;20350;-63
2023/05/31 08:52:38;;;;;;;7.30;4.32;;;20.10;99.90;;;;;;5093060;28;20055;-62
2023/05/31 08:55:05;;;;;;;7.40;4.50;;;20.20;99.90;;;;;;5093320;28;20066;-62
2023/05/31 08:57:33;;;;;;;10.35;4.80;;;20.30;99.90;;;;;;5092923;28;20048;-63
2023/05/31 09:00:07;;;;;;;8.13;4.80;;;20.40;99.90;;;;;;5093368;28;20109;-63
2023/05/31 09:02:35;;;;;;;9.07;5.25;;;20.50;99.90;;;;;;5092896;28;20047;-62
2023/05/31 09:05:02;;;;;;;7.88;4.47;;;20.50;99.90;;;;;;5093000;28;20043;-62
2023/05/31 09:07:28;;;;;;;9.45;5.07;;;20.70;99.90;;;;;;5092832;28;20048;-62
2023/05/31 09:09:54;;;;;;;8.40;4.60;;;20.60;99.90;;;;;;5093054;28;20073;-62
2023/05/31 09:12:21;;;;;;;8.98;4.47;;;20.60;99.90;;;;;;5092819;28;20040;-63
2023/05/31 09:14:48;;;;;;;10.23;5.13;;;20.60;99.90;;;;;;5092817;28;20048;-62
2023/05/31 09:17:14;;;;;;;8.20;4.60;;;20.60;99.90;;;;;;5092502;28;20063;-62
2023/05/31 09:19:48;;;;;;;9.35;4.90;;;20.60;99.90;;;;;;5092901;28;20047;-61
2023/05/31 09:22:15;;;;;;;7.95;4.07;;;20.70;99.90;;;;;;5092602;28;20044;-62
2023/05/31 09:24:59;;;;;;;9.35;4.63;;;20.90;99.90;;;;;;5092693;28;20052;-61
2023/05/31 09:27:33;;;;;;;9.10;4.57;;;20.90;99.90;;;;;;5092339;28;20044;-62
2023/05/31 09:30:08;;;;;;;10.82;4.93;;;20.90;99.90;;;;;;5092811;28;20063;-63
2023/05/31 09:32:35;;;;;;;8.90;4.70;;;21.00;99.90;;;;;;5092562;28;20047;-62
2023/05/31 09:35:13;;;;;;;9.10;4.18;;;21.00;99.90;;;;;;5092560;28;20051;-63
2023/05/31 09:37:47;;;;;;;8.07;4.70;;;21.00;99.90;;;;;;5092223;28;20043;-62
2023/05/31 09:40:25;;;;;;;8.85;4.45;;;21.00;99.90;;;;;;5092680;28;20498;-63
2023/05/31 09:42:52;;;;;;;;;;;21.20;99.90;;;;;;5092530;28;20533;-62
2023/05/31 09:45:20;;;;;;;8.70;4.70;;;21.40;99.90;;;;;;5092477;28;20370;-61
2023/05/31 09:47:47;;;;;;;10.77;4.60;;;21.60;99.90;;;;;;5092068;28;20048;-62
2023/05/31 09:50:17;;;;;;;7.50;4.40;;;21.50;99.90;;;;;;5092381;28;20044;-61
2023/05/31 09:52:45;;;;;;;8.43;4.07;;;21.70;99.90;;;;;;5092214;28;20058;-62
2023/05/31 09:55:14;;;;;;;11.05;5.20;;;21.70;99.90;;;;;;5092547;28;20120;-63
2023/05/31 09:57:40;;;;;;;8.63;4.57;;;21.60;99.90;;;;;;5092118;28;20052;-63
2023/05/31 10:00:14;;;;;;;7.50;3.92;;;21.70;99.90;;;;;;5092338;28;20117;-61
2023/05/31 10:02:45;;;;;;;8.50;4.22;;;21.80;99.90;;;;;;5091870;28;20441;-61
2023/05/31 10:05:13;;;;;;;10.10;4.75;;;21.70;99.90;;;;;;5092399;28;20048;-61
2023/05/31 10:07:45;;;;;;;11.32;5.68;;;21.70;99.90;;;;;;5090762;28;20063;-61
2023/05/31 10:10:13;;;;;;;9.82;5.10;;;21.60;99.90;;;;;;5092510;28;20345;-61
2023/05/31 10:12:57;;;;;;;10.93;4.40;;;21.40;99.90;;;;;;5092149;28;20040;-61
2023/05/31 10:15:26;;;;;;;7.38;4.65;;;21.50;99.90;;;;;;5092433;28;20128;-62
2023/05/31 10:17:59;;;;;;;9.43;4.35;;;21.80;99.90;;;;;;5091888;28;20056;-62
2023/05/31 10:20:32;;;;;;;7.63;4.57;;;22.10;99.90;;;;;;5092064;28;20430;-62
2023/05/31 10:23:01;;;;;;;7.30;4.35;;;22.00;99.90;;;;;;5092243;28;20098;-62
2023/05/31 10:25:34;;;;;;;7.05;4.47;;;22.10;99.90;;;;;;5092173;28;20048;-61
2023/05/31 10:28:06;;;;;;;8.40;4.93;;;22.00;99.90;;;;;;5091971;28;20081;-62
2023/05/31 10:30:37;;;;;;;10.88;4.60;;;22.00;99.90;;;;;;5091880;28;20391;-61
2023/05/31 10:33:07;;;;;;;;;;;21.90;99.90;;;;;;5092485;28;20456;-62
2023/05/31 10:35:34;;;;;;;8.38;4.70;;;21.90;99.90;;;;;;5091832;28;19939;-63
2023/05/31 10:38:01;;;;;;;8.57;4.68;;;22.00;99.90;;;;;;5091482;28;20362;-62
2023/05/31 10:40:52;;;;;;;8.32;4.65;;;22.10;99.90;;;;;;5093434;28;20052;-63
2023/05/31 10:43:37;;;;;;;7.97;4.90;;;22.20;99.80;;;;;;5095424;28;20423;-61
2023/05/31 10:46:10;;;;;;;7.28;4.40;;;22.20;99.90;;;;;;5095639;28;20040;-62
2023/05/31 10:48:48;;;;;;;8.20;4.30;;;22.10;99.90;;;;;;5095259;28;20040;-61
2023/05/31 10:51:16;;;;;;;8.55;4.20;;;22.30;99.90;;;;;;5095707;28;20405;-62
2023/05/31 10:53:47;;;;;;;7.35;4.57;;;22.50;99.90;;;;;;5095393;28;20044;-62
2023/05/31 10:56:14;;;;;;;7.18;4.85;;;22.50;99.80;;;;;;5095867;28;20048;-62
2023/05/31 10:58:43;;;;;;;7.55;4.53;;;22.60;99.90;;;;;;5095172;28;20060;-61
2023/05/31 11:01:14;;;;;;;8.82;4.82;;;22.80;99.80;;;;;;5095587;28;20058;-62
2023/05/31 11:03:47;;;;;;;9.02;4.65;;;22.70;99.60;;;;;;5095400;28;20048;-61
2023/05/31 11:06:17;;;;;;;11.38;4.85;;;23.00;99.60;;;;;;5095409;28;20119;-61
2023/05/31 11:09:09;;;;;;;6.32;4.00;;;23.00;99.60;;;;;;5095195;28;20169;-62
2023/05/31 11:11:42;;;;;;;7.22;3.88;;;23.00;98.60;;;;;;5095702;28;20040;-62
2023/05/31 11:14:15;;;;;;;9.70;5.40;;;23.00;99.20;;;;;;5094916;28;20052;-61
2023/05/31 11:16:45;;;;;;;7.22;4.20;;;23.10;99.30;;;;;;5095253;28;20047;-62
2023/05/31 11:19:17;;;;;;;11.80;5.15;;;23.20;99.10;;;;;;5094921;28;20464;-61
2023/05/31 11:21:50;;;;;;;9.60;4.53;;;23.20;98.80;;;;;;5095274;28;20063;-62
2023/05/31 11:24:29;;;;;;;6.50;3.97;;;23.10;98.70;;;;;;5094488;28;20372;-63
2023/05/31 11:27:00;;;;;;;9.27;5.07;;;23.00;98.90;;;;;;5095131;28;20040;-60
2023/05/31 11:29:46;;;;;;;8.70;4.28;;;23.20;99.10;;;;;;5095250;28;20048;-62
2023/05/31 11:32:13;;;;;;;7.97;4.68;;;23.40;99.00;;;;;;5095102;28;20040;-61
2023/05/31 11:34:53;;;;;;;9.60;4.07;;;23.50;98.70;;;;;;5094694;28;20044;-62
2023/05/31 11:37:23;;;;;;;10.88;4.57;;;23.50;98.60;;;;;;5094156;28;20742;-61
2023/05/31 11:39:49;;;;;;;7.93;4.07;;;23.40;98.40;;;;;;5095216;28;20055;-60
2023/05/31 11:42:16;;;;;;;7.47;4.00;;;23.50;98.50;;;;;;5094615;28;20441;-60
2023/05/31 11:44:45;;;;;;;7.97;3.80;;;23.50;98.20;;;;;;5094509;28;20052;-61
2023/05/31 11:47:21;;;;;;;7.82;3.88;;;23.50;98.30;;;;;;5094088;28;20058;-60
2023/05/31 11:49:47;;;;;;;6.88;4.05;;;23.70;98.20;;;;;;5094536;28;20117;-60
2023/05/31 11:52:16;;;;;;;7.85;3.97;;;23.60;98.20;;;;;;5093879;28;20052;-62
2023/05/31 11:54:45;;;;;;;6.63;4.05;;;23.60;98.40;;;;;;5094469;28;20445;-61
2023/05/31 11:57:12;;;;;;;8.00;3.63;;;23.70;98.30;;;;;;5094183;28;20456;-62
2023/05/31 11:59:40;;;;;;;6.28;3.83;;;23.80;98.30;;;;;;5094357;28;20044;-60
2023/05/31 12:02:07;;;;;;;5.97;3.97;;;24.00;98.10;;;;;;5093029;28;20367;-62
2023/05/31 12:04:41;;;;;;;7.15;3.60;;;24.00;98.10;;;;;;5094035;28;20529;-61
2023/05/31 12:07:15;;;;;;;6.38;3.50;;;24.10;97.90;;;;;;5093806;28;20067;-61
2023/05/31 12:09:41;;;;;;;7.20;4.18;;;24.00;97.90;;;;;;5094288;28;20037;-60
2023/05/31 12:12:08;;;;;;;7.97;4.10;;;24.10;98.10;;;;;;5094044;28;20512;-62
2023/05/31 12:14:35;;;;;;;7.70;4.32;;;24.00;97.90;;;;;;5093989;28;20047;-62
2023/05/31 12:17:05;;;;;;;9.70;4.03;;;24.10;98.30;;;;;;5093461;28;20353;-62
2023/05/31 12:19:32;;;;;;;9.00;4.50;;;24.10;99.50;;;;;;5093945;28;20048;-62
2023/05/31 12:22:00;;;;;;;8.00;4.32;;;24.00;99.70;;;;;;5093919;28;20044;-61
2023/05/31 12:24:27;;;;;;;11.13;4.60;;;24.10;99.70;;;;;;5073808;28;20106;-61
2023/05/31 12:26:54;;;;;;;10.63;4.75;;;23.90;99.90;;;;;;5073068;28;20048;-61
2023/05/31 12:29:27;;;;;;;7.97;3.80;;;24.00;99.90;;;;;;5073243;28;20094;-61
2023/05/31 12:32:02;;;;;;;8.82;4.07;;;23.90;99.90;;;;;;5073723;28;20036;-62
2023/05/31 12:34:30;;;;;;;10.10;5.20;;;24.00;99.90;;;;;;5073090;28;20389;-61
2023/05/31 12:36:58;;;;;;;10.82;5.20;;;24.10;99.70;;;;;;5073235;28;20052;-61
2023/05/31 12:39:24;;;;;;;9.45;4.47;;;24.10;99.80;;;;;;5073321;28;20453;-62
2023/05/31 12:41:51;;;;;;;7.57;4.30;;;24.00;99.70;;;;;;5073404;28;20075;-62
2023/05/31 12:44:20;;;;;;;8.48;4.25;;;24.00;99.80;;;;;;5093148;28;20052;-61
2023/05/31 12:46:50;;;;;;;9.13;4.32;;;24.10;99.80;;;;;;5092819;28;20078;-63
2023/05/31 12:49:30;;;;;;;11.73;5.13;;;24.10;99.50;;;;;;5093410;28;20044;-62
2023/05/31 12:52:07;;;;;;;8.65;4.38;;;24.20;99.10;;;;;;5092263;28;20044;-63
2023/05/31 12:54:35;;;;;;;8.07;4.70;;;24.00;99.30;;;;;;5092519;28;20048;-63